createdAt,value
2022-12-14T00:01:54.259Z,78.45
2022-12-14T00:04:22.245Z,78.53
2022-12-14T00:06:49.962Z,81.47
2022-12-14T00:09:18.058Z,78.85
2022-12-14T00:11:45.921Z,78.07
2022-12-14T00:14:13.891Z,76.18
2022-12-14T00:16:41.598Z,74.70
2022-12-14T00:19:11.835Z,79.68
2022-12-14T00:21:39.610Z,79.38
2022-12-14T00:24:07.632Z,78.32
2022-12-14T00:26:35.346Z,78.45
2022-12-14T00:29:03.631Z,77.03
2022-12-14T00:31:32.667Z,75.18
2022-12-14T00:34:01.375Z,84.78
2022-12-14T00:36:31.870Z,78.35
2022-12-14T00:39:00.427Z,72.55
2022-12-14T00:41:28.789Z,74.45
2022-12-14T00:43:57.241Z,75.85
2022-12-14T00:46:25.365Z,103.10
2022-12-14T00:48:53.496Z,86.90
2022-12-14T00:51:22.973Z,85.85
2022-12-14T00:53:51.001Z,83.60
2022-12-14T00:56:18.766Z,80.55
2022-12-14T00:58:53.881Z,73.53
2022-12-14T01:01:22.407Z,74.60
2022-12-14T01:03:50.856Z,76.55
2022-12-14T01:06:23.883Z,73.28
2022-12-14T01:08:51.920Z,98.07
2022-12-14T01:11:19.601Z,88.03
2022-12-14T01:13:49.615Z,111.50
2022-12-14T01:16:17.814Z,86.32
2022-12-14T01:18:45.861Z,108.13
2022-12-14T01:21:19.991Z,105.70
2022-12-14T01:23:51.256Z,86.85
2022-12-14T01:26:20.098Z,78.18
2022-12-14T01:28:52.429Z,85.05
2022-12-14T01:31:23.170Z,84.32
2022-12-14T01:33:51.198Z,82.80
2022-12-14T01:36:21.924Z,86.95
2022-12-14T01:38:54.835Z,91.93
2022-12-14T01:41:39.745Z,87.43
2022-12-14T01:44:10.855Z,85.72
2022-12-14T01:46:41.712Z,89.25
2022-12-14T01:49:28.774Z,88.22
2022-12-14T01:52:12.509Z,92.28
2022-12-14T01:54:52.401Z,96.80
2022-12-14T01:57:26.592Z,95.88
2022-12-14T02:00:00.916Z,89.80
2022-12-14T02:02:33.221Z,96.55
2022-12-14T02:05:02.967Z,91.05
2022-12-14T02:07:32.137Z,97.55
2022-12-14T02:10:04.629Z,90.63
2022-12-14T02:12:48.028Z,88.28
2022-12-14T02:15:16.575Z,90.88
2022-12-14T02:17:47.151Z,86.85
2022-12-14T02:20:16.467Z,93.20
2022-12-14T02:23:05.035Z,97.05
2022-12-14T02:25:42.875Z,96.95
2022-12-14T02:28:22.837Z,99.22
2022-12-14T02:31:39.962Z,100.05
2022-12-14T02:34:14.234Z,105.85
2022-12-14T02:37:04.121Z,102.63
2022-12-14T02:40:13.164Z,101.22
2022-12-14T02:42:59.053Z,97.95
2022-12-14T02:45:37.183Z,100.97
2022-12-14T02:48:14.047Z,105.50
2022-12-14T02:50:54.997Z,98.40
2022-12-14T02:53:36.427Z,99.63
2022-12-14T02:56:09.511Z,106.03
2022-12-14T02:58:41.512Z,97.55
2022-12-14T03:01:14.651Z,90.55
2022-12-14T03:03:43.232Z,88.97
2022-12-14T03:06:26.102Z,93.57
2022-12-14T03:09:05.219Z,91.70
2022-12-14T03:12:01.153Z,99.28
2022-12-14T03:14:50.557Z,94.50
2022-12-14T03:17:24.791Z,92.82
2022-12-14T03:20:06.394Z,101.78
2022-12-14T03:22:39.718Z,91.50
2022-12-14T03:25:16.169Z,90.53
2022-12-14T03:27:53.595Z,102.97
2022-12-14T03:30:44.283Z,92.95
2022-12-14T03:33:17.171Z,96.85
2022-12-14T03:36:02.337Z,96.63
2022-12-14T03:38:33.868Z,99.55
2022-12-14T03:41:14.154Z,99.45
2022-12-14T03:43:56.826Z,98.90
2022-12-14T03:46:51.163Z,105.20
2022-12-14T03:49:40.600Z,94.95
2022-12-14T03:52:21.210Z,99.70
2022-12-14T03:55:11.133Z,102.45
2022-12-14T03:57:45.037Z,99.85
2022-12-14T04:00:24.280Z,103.75
2022-12-14T04:03:07.347Z,93.95
2022-12-14T04:05:47.061Z,97.97
2022-12-14T04:08:40.246Z,103.60
2022-12-14T04:11:37.651Z,98.50
2022-12-14T04:14:38.853Z,101.47
2022-12-14T04:17:32.291Z,97.97
2022-12-14T04:22:46.366Z,97.10
2022-12-14T04:25:41.931Z,103.97
2022-12-14T04:28:53.403Z,97.63
2022-12-14T04:31:25.703Z,101.32
2022-12-14T04:33:58.761Z,101.78
2022-12-14T04:36:33.269Z,89.85
2022-12-14T04:39:08.986Z,107.72
2022-12-14T04:41:43.654Z,96.60
2022-12-14T04:44:21.884Z,109.75
2022-12-14T04:46:53.523Z,117.82
2022-12-14T04:49:32.145Z,112.03
2022-12-14T04:52:06.111Z,111.22
2022-12-14T04:54:45.318Z,108.13
2022-12-14T04:57:34.237Z,103.25
2022-12-14T05:00:02.525Z,108.85
2022-12-14T05:02:57.008Z,99.40
2022-12-14T05:05:33.968Z,109.65
2022-12-14T05:08:11.877Z,86.05
2022-12-14T05:10:44.789Z,109.47
2022-12-14T05:13:19.706Z,99.60
2022-12-14T05:15:50.312Z,99.03
2022-12-14T05:18:18.892Z,114.15
2022-12-14T05:20:47.814Z,95.85
2022-12-14T05:23:16.788Z,102.13
2022-12-14T05:25:44.540Z,97.13
2022-12-14T05:28:17.318Z,104.82
2022-12-14T05:30:47.088Z,97.28
2022-12-14T05:33:21.037Z,228.45
2022-12-14T05:35:48.751Z,199.43
2022-12-14T05:38:16.700Z,169.05
2022-12-14T05:40:44.452Z,181.60
2022-12-14T05:43:13.157Z,149.88
2022-12-14T05:45:40.955Z,129.05
2022-12-14T05:48:08.904Z,117.25
2022-12-14T05:50:36.670Z,100.90
2022-12-14T05:53:04.645Z,104.97
2022-12-14T05:55:32.376Z,97.47
2022-12-14T05:58:00.290Z,93.47
2022-12-14T06:00:27.983Z,99.50
2022-12-14T06:02:56.056Z,94.80
2022-12-14T06:05:24.034Z,87.65
2022-12-14T06:07:51.983Z,89.57
2022-12-14T06:10:19.622Z,91.82
2022-12-14T06:12:47.567Z,96.05
2022-12-14T06:15:15.407Z,91.22
2022-12-14T06:17:47.387Z,97.32
2022-12-14T06:20:15.348Z,101.97
2022-12-14T06:22:47.574Z,106.75
2022-12-14T06:25:16.027Z,104.83
2022-12-14T06:27:43.956Z,100.10
2022-12-14T06:30:12.377Z,104.85
2022-12-14T06:32:40.441Z,110.28
2022-12-14T06:35:08.745Z,122.90
2022-12-14T06:37:36.791Z,120.95
2022-12-14T06:40:05.017Z,118.00
2022-12-14T06:42:32.980Z,116.20
2022-12-14T06:45:00.693Z,120.72
2022-12-14T06:47:28.739Z,133.00
2022-12-14T06:49:56.391Z,161.23
2022-12-14T06:52:26.873Z,165.30
2022-12-14T06:54:55.125Z,145.82
2022-12-14T06:57:23.168Z,147.00
2022-12-14T06:59:51.049Z,140.32
2022-12-14T07:02:19.145Z,123.47
2022-12-14T07:04:47.035Z,151.48
2022-12-14T07:07:15.025Z,161.95
2022-12-14T07:09:42.688Z,166.77
2022-12-14T07:12:10.644Z,179.48
2022-12-14T07:14:38.279Z,169.98
2022-12-14T07:17:06.292Z,176.43
2022-12-14T07:19:34.056Z,167.85
2022-12-14T07:22:04.242Z,170.38
2022-12-14T07:24:32.110Z,169.27
2022-12-14T07:27:00.467Z,171.25
2022-12-14T07:29:34.141Z,159.52
2022-12-14T07:32:03.293Z,147.07
2022-12-14T07:34:31.099Z,136.23
2022-12-14T07:36:59.417Z,132.88
2022-12-14T07:39:27.195Z,142.73
2022-12-14T07:41:55.359Z,140.65
2022-12-14T07:44:23.099Z,148.32
2022-12-14T07:46:51.163Z,146.57
2022-12-14T07:49:18.928Z,151.45
2022-12-14T07:51:47.068Z,166.05
2022-12-14T07:54:15.015Z,179.38
2022-12-14T07:56:44.737Z,169.35
2022-12-14T07:59:15.408Z,165.05
2022-12-14T08:01:43.956Z,179.57
2022-12-14T08:04:15.267Z,145.30
2022-12-14T08:06:43.699Z,159.65
2022-12-14T08:09:12.798Z,161.43
2022-12-14T08:11:41.215Z,169.40
2022-12-14T08:14:17.416Z,152.10
2022-12-14T08:16:47.006Z,141.90
2022-12-14T08:19:15.320Z,146.82
2022-12-14T08:21:45.398Z,142.18
2022-12-14T08:24:14.625Z,109.35
2022-12-14T08:26:42.812Z,88.47
2022-12-14T08:29:15.467Z,82.10
2022-12-14T08:31:44.083Z,82.57
2022-12-14T08:34:12.049Z,105.13
2022-12-14T08:53:54.655Z,122.28
2022-12-14T08:56:25.570Z,127.78
2022-12-14T08:58:53.843Z,119.55
2022-12-14T09:01:30.349Z,120.30
2022-12-14T09:04:07.852Z,126.05
2022-12-14T09:06:38.597Z,120.45
2022-12-14T09:09:15.538Z,122.88
2022-12-14T09:11:45.506Z,117.72
2022-12-14T09:14:13.668Z,107.80
2022-12-14T09:16:41.963Z,119.35
2022-12-14T09:19:09.851Z,102.22
2022-12-14T09:21:38.560Z,105.72
2022-12-14T09:24:07.142Z,100.63
2022-12-14T09:26:35.176Z,103.97
2022-12-14T09:29:02.999Z,108.30
2022-12-14T09:31:31.022Z,96.03
2022-12-14T09:33:59.636Z,94.50
2022-12-14T09:36:28.930Z,98.53
2022-12-14T09:38:57.945Z,99.90
2022-12-14T09:41:35.392Z,101.13
2022-12-14T09:44:38.638Z,97.53
2022-12-14T09:47:10.833Z,99.22
2022-12-14T09:49:47.449Z,93.35
2022-12-14T09:52:39.084Z,90.25
2022-12-14T09:55:39.267Z,84.60
2022-12-14T09:58:13.964Z,83.53
2022-12-14T10:01:11.279Z,88.65
2022-12-14T10:04:06.505Z,77.43
2022-12-14T10:06:39.445Z,81.13
2022-12-14T10:09:30.442Z,84.47
2022-12-14T10:12:32.501Z,77.03
2022-12-14T10:15:19.228Z,85.63
2022-12-14T10:18:01.938Z,86.72
2022-12-14T10:20:42.519Z,85.77
2022-12-14T10:23:21.098Z,86.78
2022-12-14T10:26:07.977Z,80.32
2022-12-14T10:28:38.879Z,84.95
2022-12-14T10:31:12.040Z,85.85
2022-12-14T10:33:45.021Z,82.30
2022-12-14T10:36:30.784Z,79.13
2022-12-14T10:39:01.908Z,85.32
2022-12-14T10:42:01.562Z,86.97
2022-12-14T10:44:53.474Z,79.07
2022-12-14T10:47:43.808Z,80.40
2022-12-14T10:50:20.988Z,84.97
2022-12-14T10:52:54.292Z,74.97
2022-12-14T10:55:33.676Z,58.80
2022-12-14T10:58:01.655Z,81.20
2022-12-14T11:00:29.449Z,77.40
2022-12-14T11:02:58.947Z,89.38
2022-12-14T11:05:36.936Z,85.78
2022-12-14T11:08:08.005Z,75.32
2022-12-14T11:10:39.681Z,79.45
2022-12-14T11:13:13.838Z,76.10
2022-12-14T11:18:17.532Z,87.00
2022-12-14T11:21:00.353Z,82.88
2022-12-14T11:23:38.458Z,86.17
2022-12-14T11:26:20.861Z,79.60
2022-12-14T11:28:58.675Z,86.53
2022-12-14T11:31:40.387Z,88.70
2022-12-14T11:34:41.366Z,80.97
2022-12-14T11:37:20.891Z,80.55
2022-12-14T11:39:59.919Z,78.93
2022-12-14T11:42:28.338Z,77.30
2022-12-14T11:45:36.252Z,72.18
2022-12-14T11:48:16.046Z,77.97
2022-12-14T11:50:46.028Z,73.00
2022-12-14T11:53:17.388Z,78.05
2022-12-14T11:55:52.442Z,77.85
2022-12-14T11:58:32.328Z,77.13
2022-12-14T12:01:05.083Z,76.10
2022-12-14T12:03:38.089Z,77.80
2022-12-14T12:06:11.106Z,80.50
2022-12-14T12:08:41.188Z,70.97
2022-12-14T12:11:22.701Z,70.05
2022-12-14T12:14:03.639Z,79.93
2022-12-14T12:16:33.197Z,66.68
2022-12-14T12:19:05.201Z,54.90
2022-12-14T12:21:45.174Z,59.22
2022-12-14T12:24:38.775Z,61.75
2022-12-14T12:27:16.596Z,59.70
2022-12-14T12:30:16.099Z,42.45
2022-12-14T12:32:50.417Z,64.60
2022-12-14T12:35:40.001Z,57.80
2022-12-14T12:38:43.460Z,57.83
2022-12-14T12:41:44.687Z,60.10
2022-12-14T12:44:30.084Z,58.00
2022-12-14T12:47:29.931Z,67.78
2022-12-14T12:50:14.227Z,59.03
2022-12-14T12:53:28.835Z,63.38
2022-12-14T12:56:11.520Z,68.63
2022-12-14T12:58:40.915Z,63.20
2022-12-14T13:01:34.601Z,75.50
2022-12-14T13:04:11.536Z,63.38
2022-12-14T13:06:41.072Z,69.50
2022-12-14T13:09:50.064Z,65.35
2022-12-14T13:12:36.563Z,64.88
2022-12-14T13:15:14.082Z,76.15
2022-12-14T13:17:54.410Z,72.15
2022-12-14T13:20:28.382Z,72.97
2022-12-14T13:23:05.741Z,75.93
2022-12-14T13:26:28.103Z,75.60
2022-12-14T13:29:39.389Z,78.13
2022-12-14T13:32:18.692Z,77.97
2022-12-14T13:35:05.700Z,82.70
2022-12-14T13:37:51.237Z,76.43
2022-12-14T13:40:37.780Z,81.65
2022-12-14T13:43:16.002Z,77.18
2022-12-14T13:45:47.789Z,72.28
2022-12-14T13:51:42.085Z,80.00
2022-12-14T13:54:26.412Z,83.13
2022-12-14T13:57:06.508Z,82.05
2022-12-14T13:59:45.073Z,79.75
2022-12-14T14:02:39.584Z,79.70
2022-12-14T14:05:18.824Z,79.15
2022-12-14T14:07:53.780Z,82.47
2022-12-14T14:10:34.561Z,78.10
2022-12-14T14:13:27.473Z,83.97
2022-12-14T14:16:27.994Z,88.70
2022-12-14T14:19:18.713Z,81.78
2022-12-14T14:22:26.456Z,79.95
2022-12-14T14:26:02.499Z,77.97
2022-12-14T14:28:31.290Z,80.38
2022-12-14T14:30:59.927Z,79.97
2022-12-14T14:33:45.510Z,84.45
2022-12-14T14:36:33.431Z,78.05
2022-12-14T14:39:18.940Z,81.93
2022-12-14T14:41:54.526Z,92.13
2022-12-14T14:44:37.748Z,84.93
2022-12-14T14:47:15.790Z,91.00
2022-12-14T14:49:44.429Z,84.18
2022-12-14T14:52:39.697Z,78.20
2022-12-14T14:58:37.130Z,74.22
2022-12-14T15:01:08.066Z,76.88
2022-12-14T15:04:15.714Z,80.78
2022-12-14T15:06:51.184Z,82.10
2022-12-14T15:09:30.686Z,79.95
2022-12-14T15:12:19.091Z,85.15
2022-12-14T15:14:53.778Z,83.97
2022-12-14T15:17:23.948Z,85.68
2022-12-14T15:19:55.905Z,79.18
2022-12-14T15:22:30.556Z,78.97
2022-12-14T15:25:01.439Z,72.43
2022-12-14T15:27:38.113Z,78.25
2022-12-14T15:30:12.400Z,81.88
2022-12-14T15:32:57.299Z,83.90
2022-12-14T15:35:34.389Z,82.47
2022-12-14T15:38:07.888Z,79.53
2022-12-14T15:40:36.104Z,79.00
2022-12-14T15:43:17.472Z,76.75
2022-12-14T15:45:48.718Z,81.50
2022-12-14T15:48:31.116Z,76.15
2022-12-14T15:51:05.201Z,77.30
2022-12-14T15:53:51.580Z,76.07
2022-12-14T15:56:30.497Z,57.67
2022-12-14T15:59:13.450Z,76.68
2022-12-14T16:01:47.386Z,82.57
2022-12-14T16:04:22.903Z,73.93
2022-12-14T16:07:26.935Z,80.28
2022-12-14T16:10:02.037Z,82.55
2022-12-14T16:12:45.441Z,76.50
2022-12-14T16:15:27.545Z,80.10
2022-12-14T16:18:02.711Z,80.50
2022-12-14T16:20:34.025Z,87.38
2022-12-14T16:23:13.685Z,88.78
2022-12-14T16:26:02.915Z,84.97
2022-12-14T16:28:37.798Z,81.13
2022-12-14T16:31:19.981Z,79.30
2022-12-14T16:34:06.064Z,82.53
2022-12-14T16:36:36.870Z,68.05
2022-12-14T16:39:15.207Z,73.18
2022-12-14T16:41:52.060Z,81.60
2022-12-14T16:44:23.997Z,86.90
2022-12-14T16:47:11.941Z,71.15
2022-12-14T16:49:42.081Z,76.78
2022-12-14T16:52:26.940Z,71.07
2022-12-14T16:55:17.084Z,78.32
2022-12-14T16:57:58.828Z,77.20
2022-12-14T17:00:30.031Z,80.00
2022-12-14T17:03:03.962Z,76.00
2022-12-14T17:05:39.789Z,80.13
2022-12-14T17:08:08.684Z,71.65
2022-12-14T17:10:38.835Z,78.50
2022-12-14T17:13:06.573Z,69.20
2022-12-14T17:15:35.730Z,81.13
2022-12-14T17:18:07.176Z,73.03
2022-12-14T17:20:39.426Z,75.55
2022-12-14T17:23:14.872Z,76.80
2022-12-14T17:25:46.305Z,78.43
2022-12-14T17:28:34.799Z,71.22
2022-12-14T17:31:03.509Z,79.35
2022-12-14T17:33:32.408Z,75.43
2022-12-14T17:36:00.717Z,76.13
2022-12-14T17:38:28.425Z,67.22
2022-12-14T17:40:56.663Z,72.13
2022-12-14T17:43:27.658Z,75.30
2022-12-14T17:45:56.668Z,70.40
2022-12-14T17:48:24.457Z,73.13
2022-12-14T17:50:52.442Z,69.88
2022-12-14T17:53:28.040Z,68.90
2022-12-14T17:55:56.317Z,70.47
2022-12-14T17:58:24.090Z,71.15
2022-12-14T18:01:01.463Z,69.53
2022-12-14T18:03:36.802Z,71.03
2022-12-14T18:06:05.564Z,69.68
2022-12-14T18:08:33.391Z,70.07
2022-12-14T18:11:10.224Z,71.10
2022-12-14T18:13:42.184Z,49.53
2022-12-14T18:16:15.973Z,74.80
2022-12-14T18:18:45.950Z,73.95
2022-12-14T18:21:18.401Z,70.55
2022-12-14T18:23:47.667Z,74.15
2022-12-14T18:26:22.187Z,56.10
2022-12-14T18:28:52.036Z,69.65
2022-12-14T18:31:27.222Z,66.30
2022-12-14T18:33:55.480Z,63.67
2022-12-14T18:36:23.847Z,68.63
2022-12-14T18:38:52.202Z,77.43
2022-12-14T18:41:24.244Z,70.32
2022-12-14T18:43:52.670Z,65.55
2022-12-14T18:46:20.839Z,70.78
2022-12-14T18:48:48.614Z,67.72
2022-12-14T18:51:26.710Z,68.82
2022-12-14T18:53:56.657Z,61.97
2022-12-14T18:56:28.114Z,61.42
2022-12-14T18:58:56.656Z,64.78
2022-12-14T19:01:25.667Z,64.53
2022-12-14T19:03:53.626Z,66.72
2022-12-14T19:09:14.260Z,59.53
2022-12-14T19:11:42.608Z,59.90
2022-12-14T19:14:11.273Z,63.83
2022-12-14T19:16:39.748Z,66.43
2022-12-14T19:19:07.466Z,67.35
2022-12-14T19:21:35.540Z,71.15
2022-12-14T19:24:03.422Z,64.45
2022-12-14T19:26:31.785Z,69.38
2022-12-14T19:28:59.557Z,67.25
2022-12-14T19:31:27.625Z,61.78
2022-12-14T19:33:55.931Z,74.47
2022-12-14T19:36:24.682Z,68.22
2022-12-14T19:38:52.567Z,70.07
2022-12-14T19:41:21.493Z,64.57
2022-12-14T19:43:49.609Z,63.50
2022-12-14T19:46:18.325Z,57.38
2022-12-14T19:48:46.624Z,63.55
2022-12-14T19:51:14.962Z,69.30
2022-12-14T19:53:44.877Z,61.47
2022-12-14T19:56:16.937Z,69.53
2022-12-14T19:58:45.148Z,63.65
2022-12-14T20:01:16.441Z,68.38
2022-12-14T20:03:44.657Z,63.38
2022-12-14T20:06:12.891Z,63.05
2022-12-14T20:08:40.682Z,61.45
2022-12-14T20:11:11.141Z,62.80
2022-12-14T20:13:39.250Z,73.43
2022-12-14T20:16:07.595Z,67.07
2022-12-14T20:18:35.375Z,62.25
2022-12-14T20:21:07.066Z,66.57
2022-12-14T20:23:36.640Z,70.68
2022-12-14T20:26:10.862Z,60.15
2022-12-14T20:28:38.807Z,60.00
2022-12-14T20:31:08.753Z,66.82
2022-12-14T20:33:37.304Z,63.17
2022-12-14T20:36:05.956Z,64.97
2022-12-14T20:38:33.862Z,70.57
2022-12-14T20:41:11.033Z,48.33
2022-12-14T20:43:41.590Z,62.35
2022-12-14T20:46:43.517Z,66.47
2022-12-14T20:49:22.586Z,74.22
2022-12-14T20:51:50.668Z,67.88
2022-12-14T20:54:19.905Z,67.50
2022-12-14T20:56:49.628Z,66.60
2022-12-14T20:59:17.886Z,59.88
2022-12-14T21:01:51.677Z,66.75
2022-12-14T21:04:21.593Z,61.67
2022-12-14T21:06:49.701Z,72.88
2022-12-14T21:09:17.483Z,64.68
2022-12-14T21:12:08.639Z,76.75
2022-12-14T21:14:42.570Z,63.00
2022-12-14T21:17:11.351Z,74.20
2022-12-14T21:19:39.714Z,64.75
2022-12-14T21:22:11.368Z,67.03
2022-12-14T21:27:30.233Z,68.88
2022-12-14T21:29:58.090Z,68.10
2022-12-14T21:32:26.612Z,73.97
2022-12-14T21:34:54.401Z,66.68
2022-12-14T21:37:23.345Z,64.55
2022-12-14T21:39:54.996Z,64.78
2022-12-14T21:42:24.820Z,71.75
2022-12-14T21:44:53.742Z,66.70
2022-12-14T21:47:25.930Z,65.50
2022-12-14T21:49:54.459Z,71.32
2022-12-14T21:52:25.354Z,71.05
2022-12-14T21:54:53.308Z,63.55
2022-12-14T21:57:42.580Z,62.85
2022-12-14T22:00:11.537Z,63.58
2022-12-14T22:02:42.949Z,64.30
2022-12-14T22:05:11.586Z,70.55
2022-12-14T22:07:39.659Z,69.15
2022-12-14T22:10:07.769Z,59.53
2022-12-14T22:12:35.824Z,60.55
2022-12-14T22:15:03.889Z,63.72
2022-12-14T22:17:31.909Z,60.58
2022-12-14T22:19:59.840Z,69.57
2022-12-14T22:22:27.813Z,64.47
2022-12-14T22:24:55.566Z,66.88
2022-12-14T22:27:23.557Z,70.75
2022-12-14T22:29:51.313Z,65.50
2022-12-14T22:32:19.332Z,71.20
2022-12-14T22:34:47.148Z,70.05
2022-12-14T22:37:16.816Z,71.68
2022-12-14T22:39:48.146Z,73.72
2022-12-14T22:42:16.672Z,63.13
2022-12-14T22:44:44.459Z,74.40
2022-12-14T22:47:12.520Z,64.20
2022-12-14T22:49:40.273Z,67.40
2022-12-14T22:52:08.293Z,72.22
2022-12-14T22:54:37.989Z,69.50
2022-12-14T22:57:12.205Z,67.57
2022-12-14T22:59:48.491Z,68.53
2022-12-14T23:02:16.772Z,61.42
2022-12-14T23:04:44.949Z,66.38
2022-12-14T23:07:12.983Z,63.88
2022-12-14T23:09:59.132Z,68.65
2022-12-14T23:12:45.748Z,69.68
2022-12-14T23:15:32.210Z,63.47
2022-12-14T23:18:23.821Z,62.28
2022-12-14T23:21:10.527Z,66.03
2022-12-14T23:23:59.033Z,67.30
2022-12-14T23:26:45.299Z,68.30
2022-12-14T23:29:32.229Z,64.80
2022-12-14T23:32:18.512Z,66.95
2022-12-14T23:35:05.174Z,62.65
2022-12-14T23:37:51.659Z,70.13
2022-12-14T23:40:38.246Z,68.80
2022-12-14T23:43:33.070Z,68.82
2022-12-14T23:46:21.012Z,66.38
2022-12-14T23:49:13.543Z,69.75
2022-12-14T23:52:02.539Z,61.20
2022-12-14T23:54:49.031Z,65.03
2022-12-14T23:57:35.965Z,62.97
